Portada
METAR-TAF:

METAR-TAF

Aeroports :

Conakry, Guinea

latitud: 09-34N, longitud: 013-37W, altitud: 26 m

Observació

L'informe es va fer fa 1 hora i 8 minuts, a les 00:00 UTC
Vent calma
Temperatura 26°C
Humitat 79%
Pressió 1012 hPa
Visibilitat: 3000 m
boirina

METAR: GUCY 200000Z 00000KT 3000 BR NSC 26/22 Q1012 NOSIG

Hora: 01:08 (01:08 UTC)

Pronòstic

L'informe es va fer fa 19 hores i 8 minuts, a les 06:00 UTC
Pronòstic vàlid del 19 a les 06 UTC al 20 a les 12 UTC
Vent 6 kt del Oest
Visibilitat: 5000 m
calitja
Temporalment
l' 19 a les 07 UTC al 19 a les 12 UTC
Vent 4 kt del Nord-Est
Visibilitat: 4000 m
Escasses núvols a una alçada de 1500 ft
boirina

TAF: GUCY 190600Z 1906/2012 28006KT 5000 HZ NSC TEMPO 1907/1912 04004KT 4000 BR FEW015

Observacions i pronòstics meteorològics de més de 4000 aeroports (METAR i TAF).

Les estacions disponibles són els punts grocs i vermells al mapa.

Posi el ratolí al punt desitjat per veure el nom de l'estació.

Feu clic per veure les observacions i els pronòstics meteorològics.

Per canviar el mapa: feu clic els botons verds amb una creu de color negre per apropar; al botó verd amb un guió per allunyar la imatge; o en les fletxes verdes per a mapes adjacents.


METAR-TAF: